Aviation Digital Data Service (ADDS)

Output produced by METARs form (0033 UTC 29 July 2014)
found at http://aviationweather.gov/adds/metars/
 
KPVD 282322Z 2900/2924 23012KT P6SM BKN045 
     FM290200 23008KT P6SM SCT120 
     FM290600 24007KT P6SM BKN080 
     FM291200 28007KT P6SM SCT060